Impacts METAR Board
IDs:

KMEM - Memphis Intl, TN, US

Updated at: 2100 UTC 15 Jun 2019
Potential Impact None Slight Moderate High
Time 15/09Z 15/10Z 15/11Z 15/12Z 15/13Z 15/14Z 15/15Z 15/16Z 15/17Z 15/18Z 15/19Z 15/20Z 15/21Z
Temp71 70 71 73 76 78 81 82 83 84 86 88 87
Dewpt61 62 64 66 69 70 71 69 70 70 71 70 68
Altim29.99 29.99 30.02 29.99 30.01 30.02 30.01 30.01 30.00 29.98 29.97 29.95 29.94
VIS10 10 10 10 10 10 10 10 10 10 10 10 10
CIG60 -- -- -- 250 -- -- 150 48 60 55 46 130
CoverBKNFEWSCTSCTBKNSCTSCTBKNBKNBKNBKNBKNBKN
FltCatVFRVFRVFRVFRVFRVFRVFRVFRVFRVFRVFRVFRVFR
WX--------------------------
WDir170180190190210220210220210200190230240
WSpd8 7 7 11 9 11 11 13 13 16 17 12 9
WGst-- -- -- -- -- 20 20 22 24 24 21 18 --
Raw hourly METARs
KMEM 150854Z 17008KT 10SM BKN060 22/16 A2999 RMK AO2 SLP150 T02170161 53002 $
KMEM 150954Z 18007KT 10SM FEW060 FEW150 21/17 A2999 RMK AO2 SLP150 T02110167 $
KMEM 151054Z 19007KT 10SM FEW050 FEW150 SCT250 22/18 A3002 RMK AO2 SLP160 T02170178 $
KMEM 151154Z 19011KT 10SM FEW150 SCT250 23/19 A2999 RMK AO2 SLP152 T02280189 10228 20206 50002 $
KMEM 151254Z 21009KT 10SM FEW150 BKN250 24/21 A3001 RMK AO2 SLP158 T02440206 $
KMEM 151354Z 22011G20KT 10SM FEW030 SCT150 26/21 A3002 RMK AO2 SLP161 T02560211 $
KMEM 151454Z 21011G20KT 10SM FEW027 SCT150 27/22 A3001 RMK AO2 SLP159 T02720217 50007 $
KMEM 151554Z 22013G22KT 170V240 10SM FEW034 SCT042 BKN150 28/21 A3001 RMK AO2 SLP158 T02780206 $
KMEM 151654Z 21013G24KT 10SM SCT037 BKN048 BKN060 28/21 A3000 RMK AO2 PK WND 24026/1611 SLP154 T02830211 $
KMEM 151754Z 20016G24KT 10SM SCT039 SCT050 BKN060 BKN150 29/21 A2998 RMK AO2 SLP149 T02890211 10300 20228 58010 $
KMEM 151854Z 19017G21KT 10SM SCT042 BKN055 BKN150 30/22 A2997 RMK AO2 SLP144 T03000217 $
KMEM 151954Z 23012G18KT 10SM BKN046 BKN060 BKN150 31/21 A2995 RMK AO2 SLP138 T03110211 $
KMEM 152054Z 24009KT 10SM FEW048 SCT060 BKN130 31/20 A2994 RMK AO2 SLP134 T03060200 56015 $



Page loaded:  21:07 UTC  |   02:07 PM Pacific  |   03:07 PM Mountain  |   04:07 PM Central  |   05:07 PM Eastern

 

ADVISORIES

FORECASTS

FORECASTS

OBSERVATIONS

USER TOOLS

ABOUT US